sensor_id;sensor_type;location;lat;lon;timestamp;P1;durP1;ratioP1;P2;durP2;ratioP2
4601;SDS011;2313;48.552;9.370;2023-09-12T00:01:04;13.30;;;7.30;;
4601;SDS011;2313;48.552;9.370;2023-09-12T00:03:31;14.20;;;6.67;;
4601;SDS011;2313;48.552;9.370;2023-09-12T00:05:58;13.33;;;7.70;;
4601;SDS011;2313;48.552;9.370;2023-09-12T00:08:25;12.60;;;7.47;;
4601;SDS011;2313;48.552;9.370;2023-09-12T00:11:07;11.20;;;7.20;;
4601;SDS011;2313;48.552;9.370;2023-09-12T00:13:37;22.50;;;8.03;;
4601;SDS011;2313;48.552;9.370;2023-09-12T00:16:06;19.37;;;8.13;;
4601;SDS011;2313;48.552;9.370;2023-09-12T00:18:36;16.97;;;8.03;;
4601;SDS011;2313;48.552;9.370;2023-09-12T00:21:02;19.27;;;7.80;;
4601;SDS011;2313;48.552;9.370;2023-09-12T00:23:28;16.57;;;7.47;;
4601;SDS011;2313;48.552;9.370;2023-09-12T00:25:54;12.63;;;6.83;;
4601;SDS011;2313;48.552;9.370;2023-09-12T00:28:19;18.80;;;7.33;;
4601;SDS011;2313;48.552;9.370;2023-09-12T00:30:46;18.87;;;8.03;;
4601;SDS011;2313;48.552;9.370;2023-09-12T00:33:11;17.30;;;7.37;;
4601;SDS011;2313;48.552;9.370;2023-09-12T00:35:37;13.33;;;6.90;;
4601;SDS011;2313;48.552;9.370;2023-09-12T00:38:03;15.30;;;7.20;;
4601;SDS011;2313;48.552;9.370;2023-09-12T00:40:29;20.83;;;7.40;;
4601;SDS011;2313;48.552;9.370;2023-09-12T00:42:54;14.17;;;7.60;;
4601;SDS011;2313;48.552;9.370;2023-09-12T00:45:20;17.13;;;8.43;;
4601;SDS011;2313;48.552;9.370;2023-09-12T00:47:46;28.40;;;7.63;;
4601;SDS011;2313;48.552;9.370;2023-09-12T00:50:13;10.63;;;7.00;;
4601;SDS011;2313;48.552;9.370;2023-09-12T00:52:39;15.03;;;8.33;;
4601;SDS011;2313;48.552;9.370;2023-09-12T00:55:06;14.03;;;6.50;;
4601;SDS011;2313;48.552;9.370;2023-09-12T00:57:32;12.60;;;7.07;;
4601;SDS011;2313;48.552;9.370;2023-09-12T00:59:59;18.30;;;7.40;;
4601;SDS011;2313;48.552;9.370;2023-09-12T01:02:36;19.07;;;6.77;;
4601;SDS011;2313;48.552;9.370;2023-09-12T01:05:03;14.23;;;6.90;;
4601;SDS011;2313;48.552;9.370;2023-09-12T01:07:30;12.00;;;6.80;;
4601;SDS011;2313;48.552;9.370;2023-09-12T01:09:55;12.53;;;6.47;;
4601;SDS011;2313;48.552;9.370;2023-09-12T01:12:21;17.23;;;6.87;;
4601;SDS011;2313;48.552;9.370;2023-09-12T01:14:47;16.43;;;8.10;;
4601;SDS011;2313;48.552;9.370;2023-09-12T01:17:13;21.30;;;7.67;;
4601;SDS011;2313;48.552;9.370;2023-09-12T01:19:39;10.70;;;6.93;;
4601;SDS011;2313;48.552;9.370;2023-09-12T01:22:16;14.73;;;7.20;;
4601;SDS011;2313;48.552;9.370;2023-09-12T01:27:46;16.47;;;7.13;;
4601;SDS011;2313;48.552;9.370;2023-09-12T01:30:18;14.63;;;7.60;;
4601;SDS011;2313;48.552;9.370;2023-09-12T01:32:47;16.50;;;7.10;;
4601;SDS011;2313;48.552;9.370;2023-09-12T01:35:13;13.37;;;6.93;;
4601;SDS011;2313;48.552;9.370;2023-09-12T01:37:39;17.10;;;7.67;;
4601;SDS011;2313;48.552;9.370;2023-09-12T01:40:05;14.90;;;6.80;;
4601;SDS011;2313;48.552;9.370;2023-09-12T01:42:35;13.30;;;6.90;;
4601;SDS011;2313;48.552;9.370;2023-09-12T01:45:03;15.70;;;8.13;;
4601;SDS011;2313;48.552;9.370;2023-09-12T01:47:30;17.40;;;7.60;;
4601;SDS011;2313;48.552;9.370;2023-09-12T01:49:58;18.83;;;6.83;;
4601;SDS011;2313;48.552;9.370;2023-09-12T01:52:25;16.70;;;7.80;;
4601;SDS011;2313;48.552;9.370;2023-09-12T01:54:52;19.70;;;8.00;;
4601;SDS011;2313;48.552;9.370;2023-09-12T01:57:18;19.30;;;7.70;;
4601;SDS011;2313;48.552;9.370;2023-09-12T01:59:48;24.13;;;8.87;;
4601;SDS011;2313;48.552;9.370;2023-09-12T02:02:15;22.80;;;7.70;;
4601;SDS011;2313;48.552;9.370;2023-09-12T02:04:41;18.90;;;7.87;;
4601;SDS011;2313;48.552;9.370;2023-09-12T02:07:11;12.87;;;7.00;;
4601;SDS011;2313;48.552;9.370;2023-09-12T02:09:37;16.87;;;7.67;;
4601;SDS011;2313;48.552;9.370;2023-09-12T02:12:03;17.80;;;8.00;;
4601;SDS011;2313;48.552;9.370;2023-09-12T02:14:29;17.00;;;8.40;;
4601;SDS011;2313;48.552;9.370;2023-09-12T02:16:54;20.13;;;7.07;;
4601;SDS011;2313;48.552;9.370;2023-09-12T02:19:20;14.50;;;7.03;;
4601;SDS011;2313;48.552;9.370;2023-09-12T02:21:45;13.50;;;7.50;;
4601;SDS011;2313;48.552;9.370;2023-09-12T02:24:11;16.20;;;8.13;;
4601;SDS011;2313;48.552;9.370;2023-09-12T02:26:36;11.90;;;7.77;;
4601;SDS011;2313;48.552;9.370;2023-09-12T02:29:02;13.67;;;7.50;;
4601;SDS011;2313;48.552;9.370;2023-09-12T02:31:30;18.13;;;8.20;;
4601;SDS011;2313;48.552;9.370;2023-09-12T02:33:56;19.63;;;8.33;;
4601;SDS011;2313;48.552;9.370;2023-09-12T02:36:21;14.00;;;7.57;;
4601;SDS011;2313;48.552;9.370;2023-09-12T02:38:47;12.03;;;8.17;;
4601;SDS011;2313;48.552;9.370;2023-09-12T02:41:13;13.63;;;6.97;;
4601;SDS011;2313;48.552;9.370;2023-09-12T02:43:38;16.53;;;7.57;;
4601;SDS011;2313;48.552;9.370;2023-09-12T02:46:04;19.20;;;8.07;;
4601;SDS011;2313;48.552;9.370;2023-09-12T02:48:29;17.30;;;8.60;;
4601;SDS011;2313;48.552;9.370;2023-09-12T02:50:55;13.23;;;7.87;;
4601;SDS011;2313;48.552;9.370;2023-09-12T02:53:20;16.77;;;7.67;;
4601;SDS011;2313;48.552;9.370;2023-09-12T02:55:46;11.63;;;7.60;;
4601;SDS011;2313;48.552;9.370;2023-09-12T02:58:11;16.63;;;7.40;;
4601;SDS011;2313;48.552;9.370;2023-09-12T03:00:38;15.17;;;7.60;;
4601;SDS011;2313;48.552;9.370;2023-09-12T03:03:05;15.23;;;7.90;;
4601;SDS011;2313;48.552;9.370;2023-09-12T03:05:30;11.77;;;7.47;;
4601;SDS011;2313;48.552;9.370;2023-09-12T03:07:56;21.17;;;8.27;;
4601;SDS011;2313;48.552;9.370;2023-09-12T03:10:21;17.57;;;8.73;;
4601;SDS011;2313;48.552;9.370;2023-09-12T03:12:47;17.33;;;7.50;;
4601;SDS011;2313;48.552;9.370;2023-09-12T03:15:13;17.13;;;8.03;;
4601;SDS011;2313;48.552;9.370;2023-09-12T03:17:38;15.30;;;8.80;;
4601;SDS011;2313;48.552;9.370;2023-09-12T03:20:04;13.40;;;7.80;;
4601;SDS011;2313;48.552;9.370;2023-09-12T03:22:33;12.60;;;7.23;;
4601;SDS011;2313;48.552;9.370;2023-09-12T03:25:02;22.27;;;8.60;;
4601;SDS011;2313;48.552;9.370;2023-09-12T03:27:29;15.90;;;7.70;;
4601;SDS011;2313;48.552;9.370;2023-09-12T03:29:54;13.30;;;7.90;;
4601;SDS011;2313;48.552;9.370;2023-09-12T03:32:20;14.73;;;8.23;;
4601;SDS011;2313;48.552;9.370;2023-09-12T03:34:45;12.50;;;8.63;;
4601;SDS011;2313;48.552;9.370;2023-09-12T03:37:11;22.97;;;8.07;;
4601;SDS011;2313;48.552;9.370;2023-09-12T03:39:36;18.53;;;8.53;;
4601;SDS011;2313;48.552;9.370;2023-09-12T03:42:02;12.93;;;7.47;;
4601;SDS011;2313;48.552;9.370;2023-09-12T03:44:28;13.93;;;8.20;;
4601;SDS011;2313;48.552;9.370;2023-09-12T03:46:53;16.70;;;8.53;;
4601;SDS011;2313;48.552;9.370;2023-09-12T03:49:19;18.20;;;8.63;;
4601;SDS011;2313;48.552;9.370;2023-09-12T03:51:44;18.60;;;8.87;;
4601;SDS011;2313;48.552;9.370;2023-09-12T03:54:10;11.50;;;9.03;;
4601;SDS011;2313;48.552;9.370;2023-09-12T03:56:35;9.97;;;7.40;;
4601;SDS011;2313;48.552;9.370;2023-09-12T03:59:01;16.77;;;9.40;;
4601;SDS011;2313;48.552;9.370;2023-09-12T04:01:27;10.80;;;7.40;;
4601;SDS011;2313;48.552;9.370;2023-09-12T04:03:53;17.00;;;8.90;;
4601;SDS011;2313;48.552;9.370;2023-09-12T04:06:19;12.77;;;8.03;;
4601;SDS011;2313;48.552;9.370;2023-09-12T04:08:44;12.47;;;8.10;;
4601;SDS011;2313;48.552;9.370;2023-09-12T04:11:10;13.73;;;7.73;;
4601;SDS011;2313;48.552;9.370;2023-09-12T04:13:36;16.33;;;9.67;;
4601;SDS011;2313;48.552;9.370;2023-09-12T04:16:02;15.53;;;9.33;;
4601;SDS011;2313;48.552;9.370;2023-09-12T04:18:27;16.80;;;8.63;;
4601;SDS011;2313;48.552;9.370;2023-09-12T04:20:53;20.00;;;8.10;;
4601;SDS011;2313;48.552;9.370;2023-09-12T04:23:22;18.07;;;9.40;;
4601;SDS011;2313;48.552;9.370;2023-09-12T04:25:49;17.23;;;8.63;;
4601;SDS011;2313;48.552;9.370;2023-09-12T04:28:15;15.83;;;9.17;;
4601;SDS011;2313;48.552;9.370;2023-09-12T04:30:40;14.90;;;8.57;;
4601;SDS011;2313;48.552;9.370;2023-09-12T04:33:06;15.17;;;10.20;;
4601;SDS011;2313;48.552;9.370;2023-09-12T04:35:34;14.33;;;9.57;;
4601;SDS011;2313;48.552;9.370;2023-09-12T04:38:00;17.23;;;8.80;;
4601;SDS011;2313;48.552;9.370;2023-09-12T04:40:26;14.27;;;9.40;;
4601;SDS011;2313;48.552;9.370;2023-09-12T04:42:52;12.33;;;8.43;;
4601;SDS011;2313;48.552;9.370;2023-09-12T04:45:18;13.27;;;9.50;;
4601;SDS011;2313;48.552;9.370;2023-09-12T04:47:44;14.00;;;9.50;;
4601;SDS011;2313;48.552;9.370;2023-09-12T04:50:09;19.07;;;9.83;;
4601;SDS011;2313;48.552;9.370;2023-09-12T04:52:36;14.00;;;9.80;;
4601;SDS011;2313;48.552;9.370;2023-09-12T04:55:02;14.77;;;10.60;;
4601;SDS011;2313;48.552;9.370;2023-09-12T04:57:30;13.67;;;9.27;;
4601;SDS011;2313;48.552;9.370;2023-09-12T04:59:55;19.17;;;9.83;;
4601;SDS011;2313;48.552;9.370;2023-09-12T05:02:22;19.47;;;10.10;;
4601;SDS011;2313;48.552;9.370;2023-09-12T05:04:47;16.37;;;10.00;;
4601;SDS011;2313;48.552;9.370;2023-09-12T05:07:13;17.10;;;9.83;;
4601;SDS011;2313;48.552;9.370;2023-09-12T05:09:39;14.60;;;9.47;;
4601;SDS011;2313;48.552;9.370;2023-09-12T05:12:04;20.17;;;10.57;;
4601;SDS011;2313;48.552;9.370;2023-09-12T05:14:30;18.03;;;9.70;;
4601;SDS011;2313;48.552;9.370;2023-09-12T05:16:55;23.13;;;11.60;;
4601;SDS011;2313;48.552;9.370;2023-09-12T05:19:21;14.93;;;10.40;;
4601;SDS011;2313;48.552;9.370;2023-09-12T05:21:48;14.47;;;9.80;;
4601;SDS011;2313;48.552;9.370;2023-09-12T05:24:13;12.43;;;9.23;;
4601;SDS011;2313;48.552;9.370;2023-09-12T05:26:39;13.47;;;10.00;;
4601;SDS011;2313;48.552;9.370;2023-09-12T05:29:04;19.63;;;9.80;;
4601;SDS011;2313;48.552;9.370;2023-09-12T05:31:30;14.37;;;9.67;;
4601;SDS011;2313;48.552;9.370;2023-09-12T05:33:56;13.60;;;9.83;;
4601;SDS011;2313;48.552;9.370;2023-09-12T05:36:22;15.07;;;9.70;;
4601;SDS011;2313;48.552;9.370;2023-09-12T05:38:47;16.20;;;9.60;;
4601;SDS011;2313;48.552;9.370;2023-09-12T05:41:13;16.30;;;10.47;;
4601;SDS011;2313;48.552;9.370;2023-09-12T05:43:39;26.63;;;9.33;;
4601;SDS011;2313;48.552;9.370;2023-09-12T05:46:04;17.37;;;9.57;;
4601;SDS011;2313;48.552;9.370;2023-09-12T05:48:30;18.43;;;9.70;;
4601;SDS011;2313;48.552;9.370;2023-09-12T05:50:55;16.20;;;8.40;;
4601;SDS011;2313;48.552;9.370;2023-09-12T05:53:21;19.53;;;10.10;;
4601;SDS011;2313;48.552;9.370;2023-09-12T05:55:46;16.83;;;9.23;;
4601;SDS011;2313;48.552;9.370;2023-09-12T05:58:12;15.30;;;9.53;;
4601;SDS011;2313;48.552;9.370;2023-09-12T06:00:38;20.93;;;9.40;;
4601;SDS011;2313;48.552;9.370;2023-09-12T06:03:03;16.17;;;10.20;;
4601;SDS011;2313;48.552;9.370;2023-09-12T06:05:29;17.73;;;8.10;;
4601;SDS011;2313;48.552;9.370;2023-09-12T06:07:55;20.87;;;10.70;;
4601;SDS011;2313;48.552;9.370;2023-09-12T06:10:21;22.50;;;9.70;;
4601;SDS011;2313;48.552;9.370;2023-09-12T06:12:46;21.70;;;9.77;;
4601;SDS011;2313;48.552;9.370;2023-09-12T06:15:12;15.53;;;8.63;;
4601;SDS011;2313;48.552;9.370;2023-09-12T06:17:37;15.60;;;9.20;;
4601;SDS011;2313;48.552;9.370;2023-09-12T06:20:03;19.73;;;10.43;;
4601;SDS011;2313;48.552;9.370;2023-09-12T06:22:31;13.13;;;9.40;;
4601;SDS011;2313;48.552;9.370;2023-09-12T06:24:57;12.20;;;8.70;;
4601;SDS011;2313;48.552;9.370;2023-09-12T06:27:22;19.40;;;9.20;;
4601;SDS011;2313;48.552;9.370;2023-09-12T06:29:48;10.97;;;8.10;;
4601;SDS011;2313;48.552;9.370;2023-09-12T06:32:15;23.03;;;8.40;;
4601;SDS011;2313;48.552;9.370;2023-09-12T06:34:43;18.10;;;8.93;;
4601;SDS011;2313;48.552;9.370;2023-09-12T06:37:10;13.87;;;7.80;;
4601;SDS011;2313;48.552;9.370;2023-09-12T06:39:36;15.70;;;8.90;;
4601;SDS011;2313;48.552;9.370;2023-09-12T06:42:02;20.50;;;8.77;;
4601;SDS011;2313;48.552;9.370;2023-09-12T06:44:27;22.77;;;9.80;;
4601;SDS011;2313;48.552;9.370;2023-09-12T06:46:53;14.27;;;9.20;;
4601;SDS011;2313;48.552;9.370;2023-09-12T06:49:19;21.63;;;10.50;;
4601;SDS011;2313;48.552;9.370;2023-09-12T06:51:44;19.50;;;10.40;;
4601;SDS011;2313;48.552;9.370;2023-09-12T06:54:10;14.27;;;10.30;;
4601;SDS011;2313;48.552;9.370;2023-09-12T06:56:35;14.80;;;9.70;;
4601;SDS011;2313;48.552;9.370;2023-09-12T06:59:03;15.30;;;8.07;;
4601;SDS011;2313;48.552;9.370;2023-09-12T07:01:29;18.13;;;9.33;;
4601;SDS011;2313;48.552;9.370;2023-09-12T07:03:55;14.43;;;8.50;;
4601;SDS011;2313;48.552;9.370;2023-09-12T07:06:21;17.13;;;9.00;;
4601;SDS011;2313;48.552;9.370;2023-09-12T07:08:47;17.87;;;8.90;;
4601;SDS011;2313;48.552;9.370;2023-09-12T07:11:13;15.73;;;9.30;;
4601;SDS011;2313;48.552;9.370;2023-09-12T07:13:39;17.50;;;8.50;;
4601;SDS011;2313;48.552;9.370;2023-09-12T07:16:04;11.70;;;8.97;;
4601;SDS011;2313;48.552;9.370;2023-09-12T07:18:30;25.20;;;8.93;;
4601;SDS011;2313;48.552;9.370;2023-09-12T07:21:02;14.47;;;8.93;;
4601;SDS011;2313;48.552;9.370;2023-09-12T07:23:29;11.63;;;8.73;;
4601;SDS011;2313;48.552;9.370;2023-09-12T07:25:55;20.20;;;9.33;;
4601;SDS011;2313;48.552;9.370;2023-09-12T07:28:27;14.60;;;8.90;;
4601;SDS011;2313;48.552;9.370;2023-09-12T07:30:56;18.63;;;8.80;;
4601;SDS011;2313;48.552;9.370;2023-09-12T07:33:22;15.10;;;8.90;;
4601;SDS011;2313;48.552;9.370;2023-09-12T07:35:48;23.57;;;9.17;;
4601;SDS011;2313;48.552;9.370;2023-09-12T07:38:16;18.67;;;8.43;;
4601;SDS011;2313;48.552;9.370;2023-09-12T07:40:45;14.73;;;8.23;;
4601;SDS011;2313;48.552;9.370;2023-09-12T07:43:10;25.67;;;9.67;;
4601;SDS011;2313;48.552;9.370;2023-09-12T07:45:36;19.20;;;9.30;;
4601;SDS011;2313;48.552;9.370;2023-09-12T07:48:06;19.70;;;8.80;;
4601;SDS011;2313;48.552;9.370;2023-09-12T07:50:32;16.40;;;9.10;;
4601;SDS011;2313;48.552;9.370;2023-09-12T07:52:58;19.63;;;8.97;;
4601;SDS011;2313;48.552;9.370;2023-09-12T07:55:24;19.20;;;9.07;;
4601;SDS011;2313;48.552;9.370;2023-09-12T07:57:49;15.57;;;9.47;;
4601;SDS011;2313;48.552;9.370;2023-09-12T08:00:15;18.93;;;9.10;;
4601;SDS011;2313;48.552;9.370;2023-09-12T08:02:42;15.73;;;9.80;;
4601;SDS011;2313;48.552;9.370;2023-09-12T08:05:07;18.47;;;9.30;;
4601;SDS011;2313;48.552;9.370;2023-09-12T08:07:33;15.57;;;8.83;;
4601;SDS011;2313;48.552;9.370;2023-09-12T08:09:59;13.70;;;8.97;;
4601;SDS011;2313;48.552;9.370;2023-09-12T08:12:26;19.93;;;9.10;;
4601;SDS011;2313;48.552;9.370;2023-09-12T08:14:52;16.93;;;10.00;;
4601;SDS011;2313;48.552;9.370;2023-09-12T08:17:19;17.73;;;9.13;;
4601;SDS011;2313;48.552;9.370;2023-09-12T08:19:45;16.30;;;8.73;;
4601;SDS011;2313;48.552;9.370;2023-09-12T08:22:11;18.17;;;9.70;;
4601;SDS011;2313;48.552;9.370;2023-09-12T08:24:37;16.17;;;8.47;;
4601;SDS011;2313;48.552;9.370;2023-09-12T08:27:04;17.20;;;8.33;;
4601;SDS011;2313;48.552;9.370;2023-09-12T08:29:30;12.40;;;8.40;;
4601;SDS011;2313;48.552;9.370;2023-09-12T08:31:57;12.27;;;8.53;;
4601;SDS011;2313;48.552;9.370;2023-09-12T08:34:23;10.63;;;8.27;;
4601;SDS011;2313;48.552;9.370;2023-09-12T08:36:48;14.73;;;8.63;;
4601;SDS011;2313;48.552;9.370;2023-09-12T08:39:15;10.03;;;8.53;;
4601;SDS011;2313;48.552;9.370;2023-09-12T08:41:44;18.27;;;9.10;;
4601;SDS011;2313;48.552;9.370;2023-09-12T08:44:11;18.37;;;9.10;;
4601;SDS011;2313;48.552;9.370;2023-09-12T08:46:39;15.27;;;9.97;;
4601;SDS011;2313;48.552;9.370;2023-09-12T08:49:09;19.67;;;9.20;;
4601;SDS011;2313;48.552;9.370;2023-09-12T08:51:36;12.53;;;9.50;;
4601;SDS011;2313;48.552;9.370;2023-09-12T08:54:02;11.20;;;8.40;;
4601;SDS011;2313;48.552;9.370;2023-09-12T08:56:29;13.83;;;9.33;;
4601;SDS011;2313;48.552;9.370;2023-09-12T08:58:55;18.07;;;9.90;;
4601;SDS011;2313;48.552;9.370;2023-09-12T09:01:23;20.07;;;9.40;;
4601;SDS011;2313;48.552;9.370;2023-09-12T09:03:52;28.87;;;10.80;;
4601;SDS011;2313;48.552;9.370;2023-09-12T09:06:18;15.73;;;10.00;;
4601;SDS011;2313;48.552;9.370;2023-09-12T09:08:46;15.80;;;8.97;;
4601;SDS011;2313;48.552;9.370;2023-09-12T09:11:14;14.43;;;8.93;;
4601;SDS011;2313;48.552;9.370;2023-09-12T09:13:39;13.30;;;8.27;;
4601;SDS011;2313;48.552;9.370;2023-09-12T09:16:15;10.67;;;9.33;;
4601;SDS011;2313;48.552;9.370;2023-09-12T09:18:51;14.83;;;9.27;;
4601;SDS011;2313;48.552;9.370;2023-09-12T09:21:23;17.70;;;9.00;;
4601;SDS011;2313;48.552;9.370;2023-09-12T09:23:55;17.67;;;10.07;;
4601;SDS011;2313;48.552;9.370;2023-09-12T09:26:20;14.20;;;9.10;;
4601;SDS011;2313;48.552;9.370;2023-09-12T09:31:32;9.87;;;8.70;;
4601;SDS011;2313;48.552;9.370;2023-09-12T09:33:59;11.63;;;9.60;;
4601;SDS011;2313;48.552;9.370;2023-09-12T09:36:26;18.63;;;9.70;;
4601;SDS011;2313;48.552;9.370;2023-09-12T09:38:52;12.27;;;8.43;;
4601;SDS011;2313;48.552;9.370;2023-09-12T09:41:22;8.63;;;7.40;;
4601;SDS011;2313;48.552;9.370;2023-09-12T09:43:51;13.10;;;8.10;;
4601;SDS011;2313;48.552;9.370;2023-09-12T09:46:17;13.10;;;7.63;;
4601;SDS011;2313;48.552;9.370;2023-09-12T09:48:50;13.10;;;7.83;;
4601;SDS011;2313;48.552;9.370;2023-09-12T09:51:16;8.93;;;7.37;;
4601;SDS011;2313;48.552;9.370;2023-09-12T09:53:42;9.90;;;7.43;;
4601;SDS011;2313;48.552;9.370;2023-09-12T09:58:47;11.13;;;7.60;;
4601;SDS011;2313;48.552;9.370;2023-09-12T10:01:18;10.03;;;7.03;;
4601;SDS011;2313;48.552;9.370;2023-09-12T10:03:48;8.30;;;7.50;;
4601;SDS011;2313;48.552;9.370;2023-09-12T10:06:15;9.20;;;7.17;;
4601;SDS011;2313;48.552;9.370;2023-09-12T10:08:43;9.23;;;6.60;;
4601;SDS011;2313;48.552;9.370;2023-09-12T10:11:12;7.10;;;6.40;;
4601;SDS011;2313;48.552;9.370;2023-09-12T10:13:53;8.77;;;6.53;;
4601;SDS011;2313;48.552;9.370;2023-09-12T10:16:24;7.70;;;6.90;;
4601;SDS011;2313;48.552;9.370;2023-09-12T10:19:16;7.87;;;6.40;;
4601;SDS011;2313;48.552;9.370;2023-09-12T10:21:48;7.30;;;6.60;;
4601;SDS011;2313;48.552;9.370;2023-09-12T10:24:15;9.10;;;6.80;;
4601;SDS011;2313;48.552;9.370;2023-09-12T10:43:19;7.80;;;6.60;;
4601;SDS011;2313;48.552;9.370;2023-09-12T10:45:46;11.30;;;7.10;;
4601;SDS011;2313;48.552;9.370;2023-09-12T10:48:13;11.17;;;6.93;;
4601;SDS011;2313;48.552;9.370;2023-09-12T10:50:39;7.60;;;6.90;;
4601;SDS011;2313;48.552;9.370;2023-09-12T10:53:11;9.43;;;6.70;;
4601;SDS011;2313;48.552;9.370;2023-09-12T10:55:39;13.83;;;6.90;;
4601;SDS011;2313;48.552;9.370;2023-09-12T10:58:07;9.60;;;6.30;;
4601;SDS011;2313;48.552;9.370;2023-09-12T11:00:33;9.47;;;6.77;;
4601;SDS011;2313;48.552;9.370;2023-09-12T11:03:45;10.20;;;7.37;;
4601;SDS011;2313;48.552;9.370;2023-09-12T11:05:54;9.87;;;7.43;;
4601;SDS011;2313;48.552;9.370;2023-09-12T11:08:21;13.67;;;7.37;;
4601;SDS011;2313;48.552;9.370;2023-09-12T11:13:43;9.73;;;7.37;;
4601;SDS011;2313;48.552;9.370;2023-09-12T11:16:10;8.07;;;7.27;;
4601;SDS011;2313;48.552;9.370;2023-09-12T11:19:11;10.30;;;6.90;;
4601;SDS011;2313;48.552;9.370;2023-09-12T11:21:48;7.40;;;6.50;;
4601;SDS011;2313;48.552;9.370;2023-09-12T11:24:15;11.03;;;6.80;;
4601;SDS011;2313;48.552;9.370;2023-09-12T11:29:27;9.73;;;7.93;;
4601;SDS011;2313;48.552;9.370;2023-09-12T11:32:01;8.23;;;7.07;;
4601;SDS011;2313;48.552;9.370;2023-09-12T11:34:31;14.73;;;6.70;;
4601;SDS011;2313;48.552;9.370;2023-09-12T11:37:02;9.13;;;7.33;;
4601;SDS011;2313;48.552;9.370;2023-09-12T11:39:30;7.40;;;6.70;;
4601;SDS011;2313;48.552;9.370;2023-09-12T11:41:58;9.80;;;7.07;;
4601;SDS011;2313;48.552;9.370;2023-09-12T11:44:24;8.30;;;6.53;;
4601;SDS011;2313;48.552;9.370;2023-09-12T11:46:51;10.43;;;7.50;;
4601;SDS011;2313;48.552;9.370;2023-09-12T11:49:17;7.30;;;6.50;;
4601;SDS011;2313;48.552;9.370;2023-09-12T11:54:18;11.93;;;7.07;;
4601;SDS011;2313;48.552;9.370;2023-09-12T11:56:46;13.17;;;7.20;;
4601;SDS011;2313;48.552;9.370;2023-09-12T11:59:14;7.13;;;6.43;;
4601;SDS011;2313;48.552;9.370;2023-09-12T12:01:40;16.80;;;6.47;;
4601;SDS011;2313;48.552;9.370;2023-09-12T12:04:06;14.93;;;7.80;;
4601;SDS011;2313;48.552;9.370;2023-09-12T12:06:32;13.23;;;7.57;;
4601;SDS011;2313;48.552;9.370;2023-09-12T12:08:59;9.43;;;6.90;;
4601;SDS011;2313;48.552;9.370;2023-09-12T12:11:28;9.73;;;7.57;;
4601;SDS011;2313;48.552;9.370;2023-09-12T12:13:53;7.87;;;6.73;;
4601;SDS011;2313;48.552;9.370;2023-09-12T12:16:19;8.70;;;7.10;;
4601;SDS011;2313;48.552;9.370;2023-09-12T12:18:44;9.50;;;7.20;;
4601;SDS011;2313;48.552;9.370;2023-09-12T12:21:10;11.00;;;7.37;;
4601;SDS011;2313;48.552;9.370;2023-09-12T12:23:36;8.60;;;6.13;;
4601;SDS011;2313;48.552;9.370;2023-09-12T12:26:03;9.20;;;6.97;;
4601;SDS011;2313;48.552;9.370;2023-09-12T12:28:30;7.33;;;6.63;;
4601;SDS011;2313;48.552;9.370;2023-09-12T12:30:56;8.60;;;6.30;;
4601;SDS011;2313;48.552;9.370;2023-09-12T12:33:22;8.47;;;7.20;;
4601;SDS011;2313;48.552;9.370;2023-09-12T12:35:48;10.73;;;6.80;;
4601;SDS011;2313;48.552;9.370;2023-09-12T12:38:15;11.73;;;6.63;;
4601;SDS011;2313;48.552;9.370;2023-09-12T12:40:40;8.30;;;6.90;;
4601;SDS011;2313;48.552;9.370;2023-09-12T12:43:07;7.43;;;6.60;;
4601;SDS011;2313;48.552;9.370;2023-09-12T12:45:51;9.50;;;7.83;;
4601;SDS011;2313;48.552;9.370;2023-09-12T12:48:28;7.63;;;6.90;;
4601;SDS011;2313;48.552;9.370;2023-09-12T12:50:58;8.90;;;7.60;;
4601;SDS011;2313;48.552;9.370;2023-09-12T12:53:39;8.17;;;7.30;;
4601;SDS011;2313;48.552;9.370;2023-09-12T12:56:06;11.37;;;7.50;;
4601;SDS011;2313;48.552;9.370;2023-09-12T12:58:32;7.70;;;6.90;;
4601;SDS011;2313;48.552;9.370;2023-09-12T13:00:58;9.60;;;7.63;;
4601;SDS011;2313;48.552;9.370;2023-09-12T13:03:24;8.73;;;7.10;;
4601;SDS011;2313;48.552;9.370;2023-09-12T13:05:49;10.20;;;7.03;;
4601;SDS011;2313;48.552;9.370;2023-09-12T13:08:15;8.50;;;7.30;;
4601;SDS011;2313;48.552;9.370;2023-09-12T13:10:40;10.00;;;7.30;;
4601;SDS011;2313;48.552;9.370;2023-09-12T13:13:09;13.43;;;6.80;;
4601;SDS011;2313;48.552;9.370;2023-09-12T13:15:35;8.10;;;6.70;;
4601;SDS011;2313;48.552;9.370;2023-09-12T13:18:00;8.20;;;7.50;;
4601;SDS011;2313;48.552;9.370;2023-09-12T13:20:26;7.67;;;6.80;;
4601;SDS011;2313;48.552;9.370;2023-09-12T13:22:52;7.40;;;6.70;;
4601;SDS011;2313;48.552;9.370;2023-09-12T13:25:18;9.40;;;6.80;;
4601;SDS011;2313;48.552;9.370;2023-09-12T13:27:44;13.97;;;7.50;;
4601;SDS011;2313;48.552;9.370;2023-09-12T13:30:10;7.90;;;6.80;;
4601;SDS011;2313;48.552;9.370;2023-09-12T13:32:36;7.63;;;6.13;;
4601;SDS011;2313;48.552;9.370;2023-09-12T13:35:02;8.60;;;6.63;;
4601;SDS011;2313;48.552;9.370;2023-09-12T13:37:28;8.90;;;7.10;;
4601;SDS011;2313;48.552;9.370;2023-09-12T13:39:54;8.10;;;6.00;;
4601;SDS011;2313;48.552;9.370;2023-09-12T13:42:20;7.27;;;6.27;;
4601;SDS011;2313;48.552;9.370;2023-09-12T13:44:49;6.77;;;6.20;;
4601;SDS011;2313;48.552;9.370;2023-09-12T13:47:15;8.73;;;6.50;;
4601;SDS011;2313;48.552;9.370;2023-09-12T13:49:47;8.37;;;6.90;;
4601;SDS011;2313;48.552;9.370;2023-09-12T13:52:13;8.00;;;6.83;;
4601;SDS011;2313;48.552;9.370;2023-09-12T13:54:39;10.23;;;7.87;;
4601;SDS011;2313;48.552;9.370;2023-09-12T13:57:05;7.17;;;6.50;;
4601;SDS011;2313;48.552;9.370;2023-09-12T13:59:31;8.40;;;6.50;;
4601;SDS011;2313;48.552;9.370;2023-09-12T14:01:56;8.50;;;7.40;;
4601;SDS011;2313;48.552;9.370;2023-09-12T14:04:22;8.97;;;7.27;;
4601;SDS011;2313;48.552;9.370;2023-09-12T14:06:47;8.77;;;6.80;;
4601;SDS011;2313;48.552;9.370;2023-09-12T14:09:13;8.33;;;7.13;;
4601;SDS011;2313;48.552;9.370;2023-09-12T14:11:40;9.13;;;7.10;;
4601;SDS011;2313;48.552;9.370;2023-09-12T14:14:06;8.70;;;7.13;;
4601;SDS011;2313;48.552;9.370;2023-09-12T14:16:31;8.73;;;7.03;;
4601;SDS011;2313;48.552;9.370;2023-09-12T14:18:57;9.20;;;7.17;;
4601;SDS011;2313;48.552;9.370;2023-09-12T14:21:23;8.80;;;7.40;;
4601;SDS011;2313;48.552;9.370;2023-09-12T14:23:49;7.70;;;7.00;;
4601;SDS011;2313;48.552;9.370;2023-09-12T14:26:14;8.77;;;7.23;;
4601;SDS011;2313;48.552;9.370;2023-09-12T14:28:40;7.37;;;6.63;;
4601;SDS011;2313;48.552;9.370;2023-09-12T14:31:06;8.67;;;7.40;;
4601;SDS011;2313;48.552;9.370;2023-09-12T14:33:38;9.50;;;7.33;;
4601;SDS011;2313;48.552;9.370;2023-09-12T14:36:04;10.60;;;6.80;;
4601;SDS011;2313;48.552;9.370;2023-09-12T14:38:30;8.30;;;7.53;;
4601;SDS011;2313;48.552;9.370;2023-09-12T14:40:56;10.07;;;7.60;;
4601;SDS011;2313;48.552;9.370;2023-09-12T14:43:21;8.43;;;7.63;;
4601;SDS011;2313;48.552;9.370;2023-09-12T14:45:48;12.87;;;8.07;;
4601;SDS011;2313;48.552;9.370;2023-09-12T14:48:14;11.33;;;7.47;;
4601;SDS011;2313;48.552;9.370;2023-09-12T14:50:39;14.20;;;7.70;;
4601;SDS011;2313;48.552;9.370;2023-09-12T14:53:05;14.83;;;8.17;;
4601;SDS011;2313;48.552;9.370;2023-09-12T14:55:31;9.83;;;7.50;;
4601;SDS011;2313;48.552;9.370;2023-09-12T14:57:57;14.27;;;10.00;;
4601;SDS011;2313;48.552;9.370;2023-09-12T15:00:23;14.33;;;7.73;;
4601;SDS011;2313;48.552;9.370;2023-09-12T15:02:49;12.50;;;9.00;;
4601;SDS011;2313;48.552;9.370;2023-09-12T15:05:15;11.03;;;8.80;;
4601;SDS011;2313;48.552;9.370;2023-09-12T15:07:41;15.03;;;8.80;;
4601;SDS011;2313;48.552;9.370;2023-09-12T15:10:07;13.00;;;8.40;;
4601;SDS011;2313;48.552;9.370;2023-09-12T15:12:33;11.37;;;7.90;;
4601;SDS011;2313;48.552;9.370;2023-09-12T15:14:59;15.30;;;8.60;;
4601;SDS011;2313;48.552;9.370;2023-09-12T15:17:24;14.27;;;9.90;;
4601;SDS011;2313;48.552;9.370;2023-09-12T15:19:50;12.50;;;8.90;;
4601;SDS011;2313;48.552;9.370;2023-09-12T15:22:15;14.77;;;9.00;;
4601;SDS011;2313;48.552;9.370;2023-09-12T15:24:41;12.63;;;9.37;;
4601;SDS011;2313;48.552;9.370;2023-09-12T15:27:07;11.57;;;8.33;;
4601;SDS011;2313;48.552;9.370;2023-09-12T15:29:33;13.57;;;8.80;;
4601;SDS011;2313;48.552;9.370;2023-09-12T15:31:58;13.70;;;9.87;;
4601;SDS011;2313;48.552;9.370;2023-09-12T15:34:25;11.80;;;8.13;;